sensor_id;sensor_type;location;lat;lon;timestamp;P1;durP1;ratioP1;P2;durP2;ratioP2
46701;SDS011;33449;50.712;7.124;2023-02-28T00:08:23;17.70;;;2.75;;
46701;SDS011;33449;50.712;7.124;2023-02-28T00:11:03;6.82;;;3.05;;
46701;SDS011;33449;50.712;7.124;2023-02-28T00:13:33;8.07;;;3.15;;
46701;SDS011;33449;50.712;7.124;2023-02-28T00:16:05;6.55;;;2.75;;
46701;SDS011;33449;50.712;7.124;2023-02-28T00:18:33;9.35;;;3.10;;
46701;SDS011;33449;50.712;7.124;2023-02-28T00:21:04;7.95;;;3.10;;
46701;SDS011;33449;50.712;7.124;2023-02-28T00:24:09;7.50;;;3.13;;
46701;SDS011;33449;50.712;7.124;2023-02-28T00:32:27;7.13;;;2.70;;
46701;SDS011;33449;50.712;7.124;2023-02-28T00:35:10;9.57;;;3.55;;
46701;SDS011;33449;50.712;7.124;2023-02-28T00:37:41;8.68;;;3.67;;
46701;SDS011;33449;50.712;7.124;2023-02-28T00:40:10;9.07;;;3.30;;
46701;SDS011;33449;50.712;7.124;2023-02-28T00:42:52;7.10;;;2.92;;
46701;SDS011;33449;50.712;7.124;2023-02-28T01:08:52;8.00;;;3.33;;
46701;SDS011;33449;50.712;7.124;2023-02-28T01:13:54;8.57;;;3.92;;
46701;SDS011;33449;50.712;7.124;2023-02-28T01:16:23;8.82;;;3.30;;
46701;SDS011;33449;50.712;7.124;2023-02-28T01:21:26;6.53;;;2.80;;
46701;SDS011;33449;50.712;7.124;2023-02-28T01:24:10;5.88;;;2.55;;
46701;SDS011;33449;50.712;7.124;2023-02-28T01:26:38;6.90;;;3.28;;
46701;SDS011;33449;50.712;7.124;2023-02-28T01:29:09;6.65;;;3.20;;
46701;SDS011;33449;50.712;7.124;2023-02-28T01:31:46;7.78;;;2.95;;
46701;SDS011;33449;50.712;7.124;2023-02-28T01:34:14;6.07;;;2.65;;
46701;SDS011;33449;50.712;7.124;2023-02-28T01:36:41;7.82;;;3.50;;
46701;SDS011;33449;50.712;7.124;2023-02-28T01:39:22;9.95;;;3.10;;
46701;SDS011;33449;50.712;7.124;2023-02-28T01:55:54;4.10;;;2.65;;
46701;SDS011;33449;50.712;7.124;2023-02-28T01:58:25;9.27;;;3.15;;
46701;SDS011;33449;50.712;7.124;2023-02-28T02:00:55;4.75;;;2.72;;
46701;SDS011;33449;50.712;7.124;2023-02-28T02:03:28;6.00;;;2.55;;
46701;SDS011;33449;50.712;7.124;2023-02-28T02:06:02;10.30;;;2.80;;
46701;SDS011;33449;50.712;7.124;2023-02-28T02:08:30;5.38;;;2.78;;
46701;SDS011;33449;50.712;7.124;2023-02-28T02:10:59;4.82;;;2.80;;
46701;SDS011;33449;50.712;7.124;2023-02-28T03:25:33;7.57;;;2.72;;
46701;SDS011;33449;50.712;7.124;2023-02-28T03:28:31;7.07;;;3.03;;
46701;SDS011;33449;50.712;7.124;2023-02-28T03:36:40;6.07;;;3.10;;
46701;SDS011;33449;50.712;7.124;2023-02-28T03:39:46;8.10;;;2.88;;
46701;SDS011;33449;50.712;7.124;2023-02-28T03:42:29;4.82;;;2.85;;
46701;SDS011;33449;50.712;7.124;2023-02-28T03:45:13;9.10;;;3.17;;
46701;SDS011;33449;50.712;7.124;2023-02-28T03:47:41;7.03;;;3.47;;
46701;SDS011;33449;50.712;7.124;2023-02-28T03:50:22;5.95;;;2.90;;
46701;SDS011;33449;50.712;7.124;2023-02-28T03:52:58;4.97;;;2.83;;
46701;SDS011;33449;50.712;7.124;2023-02-28T03:55:42;13.32;;;3.42;;
46701;SDS011;33449;50.712;7.124;2023-02-28T04:03:49;7.65;;;2.92;;
46701;SDS011;33449;50.712;7.124;2023-02-28T04:34:12;9.45;;;3.60;;
46701;SDS011;33449;50.712;7.124;2023-02-28T04:36:40;14.13;;;4.35;;
46701;SDS011;33449;50.712;7.124;2023-02-28T04:39:25;11.38;;;3.20;;
46701;SDS011;33449;50.712;7.124;2023-02-28T04:41:56;11.18;;;3.10;;
46701;SDS011;33449;50.712;7.124;2023-02-28T04:44:26;7.70;;;3.30;;
46701;SDS011;33449;50.712;7.124;2023-02-28T04:46:53;11.65;;;3.03;;
46701;SDS011;33449;50.712;7.124;2023-02-28T04:49:21;8.27;;;3.17;;
46701;SDS011;33449;50.712;7.124;2023-02-28T04:57:31;7.75;;;3.47;;
46701;SDS011;33449;50.712;7.124;2023-02-28T04:59:59;5.88;;;3.15;;
46701;SDS011;33449;50.712;7.124;2023-02-28T05:02:29;7.75;;;3.58;;
46701;SDS011;33449;50.712;7.124;2023-02-28T05:04:56;9.02;;;3.60;;
46701;SDS011;33449;50.712;7.124;2023-02-28T05:07:23;14.13;;;4.30;;
46701;SDS011;33449;50.712;7.124;2023-02-28T05:12:22;6.90;;;3.90;;
46701;SDS011;33449;50.712;7.124;2023-02-28T05:14:49;5.95;;;3.40;;
46701;SDS011;33449;50.712;7.124;2023-02-28T05:17:16;11.90;;;3.33;;
46701;SDS011;33449;50.712;7.124;2023-02-28T05:19:43;8.13;;;3.20;;
46701;SDS011;33449;50.712;7.124;2023-02-28T05:22:14;7.00;;;3.10;;
46701;SDS011;33449;50.712;7.124;2023-02-28T05:30:05;10.02;;;3.40;;
46701;SDS011;33449;50.712;7.124;2023-02-28T05:32:33;9.93;;;3.40;;
46701;SDS011;33449;50.712;7.124;2023-02-28T05:35:00;10.48;;;3.65;;
46701;SDS011;33449;50.712;7.124;2023-02-28T05:37:27;7.25;;;3.85;;
46701;SDS011;33449;50.712;7.124;2023-02-28T05:39:54;10.70;;;4.28;;
46701;SDS011;33449;50.712;7.124;2023-02-28T05:42:21;7.57;;;3.80;;
46701;SDS011;33449;50.712;7.124;2023-02-28T05:44:49;7.85;;;4.15;;
46701;SDS011;33449;50.712;7.124;2023-02-28T05:47:17;7.72;;;3.70;;
46701;SDS011;33449;50.712;7.124;2023-02-28T05:49:48;8.40;;;4.30;;
46701;SDS011;33449;50.712;7.124;2023-02-28T05:52:15;8.23;;;3.50;;
46701;SDS011;33449;50.712;7.124;2023-02-28T05:57:14;5.90;;;3.67;;
46701;SDS011;33449;50.712;7.124;2023-02-28T06:02:41;6.47;;;3.17;;
46701;SDS011;33449;50.712;7.124;2023-02-28T06:05:16;6.90;;;4.00;;
46701;SDS011;33449;50.712;7.124;2023-02-28T06:10:18;7.00;;;3.72;;
46701;SDS011;33449;50.712;7.124;2023-02-28T06:12:46;8.43;;;3.85;;
46701;SDS011;33449;50.712;7.124;2023-02-28T06:15:19;6.72;;;3.30;;
46701;SDS011;33449;50.712;7.124;2023-02-28T06:18:10;7.72;;;3.53;;
46701;SDS011;33449;50.712;7.124;2023-02-28T06:20:37;6.85;;;3.80;;
46701;SDS011;33449;50.712;7.124;2023-02-28T06:23:04;8.18;;;3.83;;
46701;SDS011;33449;50.712;7.124;2023-02-28T06:28:00;10.77;;;4.70;;
46701;SDS011;33449;50.712;7.124;2023-02-28T06:33:03;9.75;;;3.67;;
46701;SDS011;33449;50.712;7.124;2023-02-28T06:35:31;9.10;;;4.18;;
46701;SDS011;33449;50.712;7.124;2023-02-28T06:37:58;6.30;;;3.85;;
46701;SDS011;33449;50.712;7.124;2023-02-28T06:40:25;6.15;;;3.42;;
46701;SDS011;33449;50.712;7.124;2023-02-28T06:42:54;7.00;;;3.95;;
46701;SDS011;33449;50.712;7.124;2023-02-28T06:45:24;6.07;;;3.73;;
46701;SDS011;33449;50.712;7.124;2023-02-28T06:47:53;5.85;;;3.42;;
46701;SDS011;33449;50.712;7.124;2023-02-28T06:50:21;15.00;;;4.22;;
46701;SDS011;33449;50.712;7.124;2023-02-28T06:52:52;5.22;;;3.63;;
46701;SDS011;33449;50.712;7.124;2023-02-28T06:55:27;6.85;;;3.75;;
46701;SDS011;33449;50.712;7.124;2023-02-28T06:57:58;6.32;;;3.40;;
46701;SDS011;33449;50.712;7.124;2023-02-28T07:02:59;6.47;;;3.65;;
46701;SDS011;33449;50.712;7.124;2023-02-28T07:05:26;6.75;;;3.45;;
46701;SDS011;33449;50.712;7.124;2023-02-28T07:07:53;7.70;;;3.70;;
46701;SDS011;33449;50.712;7.124;2023-02-28T07:10:22;7.53;;;3.67;;
46701;SDS011;33449;50.712;7.124;2023-02-28T07:12:51;6.80;;;3.30;;
46701;SDS011;33449;50.712;7.124;2023-02-28T07:17:53;5.57;;;2.78;;
46701;SDS011;33449;50.712;7.124;2023-02-28T07:20:20;8.27;;;3.72;;
46701;SDS011;33449;50.712;7.124;2023-02-28T07:22:47;8.70;;;3.72;;
46701;SDS011;33449;50.712;7.124;2023-02-28T07:25:24;6.70;;;3.55;;
46701;SDS011;33449;50.712;7.124;2023-02-28T07:27:52;5.63;;;3.17;;
46701;SDS011;33449;50.712;7.124;2023-02-28T07:32:55;7.20;;;3.60;;
46701;SDS011;33449;50.712;7.124;2023-02-28T07:35:23;6.38;;;3.63;;
46701;SDS011;33449;50.712;7.124;2023-02-28T07:37:50;6.95;;;3.20;;
46701;SDS011;33449;50.712;7.124;2023-02-28T07:40:17;8.38;;;3.20;;
46701;SDS011;33449;50.712;7.124;2023-02-28T07:42:45;5.47;;;3.10;;
46701;SDS011;33449;50.712;7.124;2023-02-28T07:50:43;9.65;;;3.55;;
46701;SDS011;33449;50.712;7.124;2023-02-28T07:53:22;7.72;;;3.22;;
46701;SDS011;33449;50.712;7.124;2023-02-28T07:56:14;8.95;;;3.38;;
46701;SDS011;33449;50.712;7.124;2023-02-28T07:58:59;7.30;;;3.35;;
46701;SDS011;33449;50.712;7.124;2023-02-28T08:01:42;7.65;;;3.22;;
46701;SDS011;33449;50.712;7.124;2023-02-28T08:04:11;9.95;;;3.58;;
46701;SDS011;33449;50.712;7.124;2023-02-28T08:06:38;9.13;;;3.55;;
46701;SDS011;33449;50.712;7.124;2023-02-28T08:11:41;7.40;;;3.65;;
46701;SDS011;33449;50.712;7.124;2023-02-28T08:14:08;7.70;;;3.42;;
46701;SDS011;33449;50.712;7.124;2023-02-28T08:16:35;7.13;;;3.47;;
46701;SDS011;33449;50.712;7.124;2023-02-28T08:19:09;5.28;;;3.25;;
46701;SDS011;33449;50.712;7.124;2023-02-28T08:21:56;9.77;;;4.55;;
46701;SDS011;33449;50.712;7.124;2023-02-28T08:25:03;6.07;;;3.75;;
46701;SDS011;33449;50.712;7.124;2023-02-28T08:27:59;8.43;;;3.70;;
46701;SDS011;33449;50.712;7.124;2023-02-28T08:30:28;14.80;;;3.60;;
46701;SDS011;33449;50.712;7.124;2023-02-28T08:33:09;9.43;;;3.80;;
46701;SDS011;33449;50.712;7.124;2023-02-28T08:36:13;7.18;;;3.28;;
46701;SDS011;33449;50.712;7.124;2023-02-28T08:38:48;5.43;;;2.97;;
46701;SDS011;33449;50.712;7.124;2023-02-28T08:41:31;5.43;;;3.33;;
46701;SDS011;33449;50.712;7.124;2023-02-28T08:43:58;6.88;;;2.55;;
46701;SDS011;33449;50.712;7.124;2023-02-28T08:46:26;6.70;;;3.20;;
46701;SDS011;33449;50.712;7.124;2023-02-28T08:48:54;4.85;;;2.58;;
46701;SDS011;33449;50.712;7.124;2023-02-28T08:51:21;4.32;;;2.90;;
46701;SDS011;33449;50.712;7.124;2023-02-28T08:56:40;7.68;;;3.90;;
46701;SDS011;33449;50.712;7.124;2023-02-28T08:59:36;9.77;;;3.67;;
46701;SDS011;33449;50.712;7.124;2023-02-28T09:02:05;4.55;;;2.88;;
46701;SDS011;33449;50.712;7.124;2023-02-28T09:04:53;8.10;;;2.95;;
46701;SDS011;33449;50.712;7.124;2023-02-28T09:07:51;6.28;;;2.75;;
46701;SDS011;33449;50.712;7.124;2023-02-28T09:10:44;7.03;;;2.83;;
46701;SDS011;33449;50.712;7.124;2023-02-28T09:13:51;11.48;;;4.20;;
46701;SDS011;33449;50.712;7.124;2023-02-28T09:16:39;4.75;;;2.55;;
46701;SDS011;33449;50.712;7.124;2023-02-28T09:19:14;5.57;;;2.83;;
46701;SDS011;33449;50.712;7.124;2023-02-28T09:22:03;5.22;;;2.40;;
46701;SDS011;33449;50.712;7.124;2023-02-28T09:24:37;5.95;;;2.92;;
46701;SDS011;33449;50.712;7.124;2023-02-28T09:27:40;7.03;;;2.42;;
46701;SDS011;33449;50.712;7.124;2023-02-28T09:30:53;3.45;;;2.35;;
46701;SDS011;33449;50.712;7.124;2023-02-28T09:34:00;6.53;;;3.00;;
46701;SDS011;33449;50.712;7.124;2023-02-28T09:36:34;5.43;;;2.30;;
46701;SDS011;33449;50.712;7.124;2023-02-28T09:39:17;3.92;;;2.50;;
46701;SDS011;33449;50.712;7.124;2023-02-28T09:41:48;4.50;;;2.50;;
46701;SDS011;33449;50.712;7.124;2023-02-28T09:44:33;5.38;;;2.33;;
46701;SDS011;33449;50.712;7.124;2023-02-28T09:50:21;5.93;;;2.70;;
46701;SDS011;33449;50.712;7.124;2023-02-28T09:53:16;6.13;;;2.50;;
46701;SDS011;33449;50.712;7.124;2023-02-28T10:10:37;6.05;;;2.10;;
46701;SDS011;33449;50.712;7.124;2023-02-28T10:13:22;6.22;;;2.85;;
46701;SDS011;33449;50.712;7.124;2023-02-28T10:16:14;4.00;;;2.27;;
46701;SDS011;33449;50.712;7.124;2023-02-28T10:18:58;6.63;;;2.25;;
46701;SDS011;33449;50.712;7.124;2023-02-28T10:21:39;4.20;;;2.17;;
46701;SDS011;33449;50.712;7.124;2023-02-28T10:24:25;5.30;;;2.13;;
46701;SDS011;33449;50.712;7.124;2023-02-28T10:26:55;4.30;;;1.77;;
46701;SDS011;33449;50.712;7.124;2023-02-28T10:29:24;5.43;;;2.58;;
46701;SDS011;33449;50.712;7.124;2023-02-28T10:32:01;5.57;;;2.22;;
46701;SDS011;33449;50.712;7.124;2023-02-28T10:34:44;3.55;;;2.05;;
46701;SDS011;33449;50.712;7.124;2023-02-28T10:37:12;5.60;;;2.10;;
46701;SDS011;33449;50.712;7.124;2023-02-28T10:58:55;4.22;;;2.20;;
46701;SDS011;33449;50.712;7.124;2023-02-28T11:09:46;6.38;;;2.22;;
46701;SDS011;33449;50.712;7.124;2023-02-28T11:12:36;4.65;;;2.40;;
46701;SDS011;33449;50.712;7.124;2023-02-28T11:15:30;3.90;;;2.00;;
46701;SDS011;33449;50.712;7.124;2023-02-28T11:18:15;4.85;;;2.55;;
46701;SDS011;33449;50.712;7.124;2023-02-28T11:20:51;5.10;;;2.20;;
46701;SDS011;33449;50.712;7.124;2023-02-28T11:23:30;4.07;;;2.20;;
46701;SDS011;33449;50.712;7.124;2023-02-28T11:26:08;4.35;;;2.03;;
46701;SDS011;33449;50.712;7.124;2023-02-28T11:28:42;3.67;;;2.15;;
46701;SDS011;33449;50.712;7.124;2023-02-28T11:31:21;2.63;;;1.87;;
46701;SDS011;33449;50.712;7.124;2023-02-28T11:34:22;5.15;;;2.78;;
46701;SDS011;33449;50.712;7.124;2023-02-28T11:37:18;4.70;;;1.98;;
46701;SDS011;33449;50.712;7.124;2023-02-28T11:40:09;4.20;;;2.03;;
46701;SDS011;33449;50.712;7.124;2023-02-28T11:45:57;2.92;;;1.90;;
46701;SDS011;33449;50.712;7.124;2023-02-28T11:51:42;4.10;;;2.30;;
46701;SDS011;33449;50.712;7.124;2023-02-28T12:08:15;4.53;;;2.45;;
46701;SDS011;33449;50.712;7.124;2023-02-28T12:13:53;4.72;;;2.72;;
46701;SDS011;33449;50.712;7.124;2023-02-28T12:16:28;5.00;;;2.33;;
46701;SDS011;33449;50.712;7.124;2023-02-28T12:32:39;4.88;;;2.35;;
46701;SDS011;33449;50.712;7.124;2023-02-28T12:35:14;4.55;;;2.08;;
46701;SDS011;33449;50.712;7.124;2023-02-28T12:38:05;3.72;;;2.47;;
46701;SDS011;33449;50.712;7.124;2023-02-28T12:43:25;3.92;;;2.15;;
46701;SDS011;33449;50.712;7.124;2023-02-28T12:46:44;3.90;;;2.25;;
46701;SDS011;33449;50.712;7.124;2023-02-28T12:48:53;6.22;;;2.63;;
46701;SDS011;33449;50.712;7.124;2023-02-28T12:56:44;4.50;;;2.42;;
46701;SDS011;33449;50.712;7.124;2023-02-28T12:59:27;3.17;;;2.35;;
46701;SDS011;33449;50.712;7.124;2023-02-28T13:10:46;4.13;;;2.63;;
46701;SDS011;33449;50.712;7.124;2023-02-28T13:13:19;5.47;;;2.72;;
46701;SDS011;33449;50.712;7.124;2023-02-28T13:16:00;5.50;;;2.20;;
46701;SDS011;33449;50.712;7.124;2023-02-28T13:18:46;10.32;;;2.70;;
46701;SDS011;33449;50.712;7.124;2023-02-28T13:21:28;6.00;;;2.65;;
46701;SDS011;33449;50.712;7.124;2023-02-28T13:24:01;4.10;;;2.50;;
46701;SDS011;33449;50.712;7.124;2023-02-28T13:27:10;4.78;;;2.45;;
46701;SDS011;33449;50.712;7.124;2023-02-28T13:29:41;6.00;;;3.38;;
46701;SDS011;33449;50.712;7.124;2023-02-28T13:37:42;4.03;;;2.50;;
46701;SDS011;33449;50.712;7.124;2023-02-28T13:45:23;6.82;;;2.97;;
46701;SDS011;33449;50.712;7.124;2023-02-28T13:48:00;4.85;;;2.53;;
46701;SDS011;33449;50.712;7.124;2023-02-28T13:50:33;4.47;;;2.80;;
46701;SDS011;33449;50.712;7.124;2023-02-28T13:56:00;5.60;;;3.20;;
46701;SDS011;33449;50.712;7.124;2023-02-28T13:58:46;4.85;;;2.70;;
46701;SDS011;33449;50.712;7.124;2023-02-28T14:07:33;6.65;;;2.90;;
46701;SDS011;33449;50.712;7.124;2023-02-28T14:17:57;6.25;;;2.88;;
46701;SDS011;33449;50.712;7.124;2023-02-28T14:20:29;4.20;;;2.38;;
46701;SDS011;33449;50.712;7.124;2023-02-28T14:23:12;7.20;;;3.28;;
46701;SDS011;33449;50.712;7.124;2023-02-28T14:31:11;6.47;;;2.80;;
46701;SDS011;33449;50.712;7.124;2023-02-28T14:36:25;4.60;;;2.55;;
46701;SDS011;33449;50.712;7.124;2023-02-28T14:38:57;7.30;;;3.15;;
46701;SDS011;33449;50.712;7.124;2023-02-28T14:41:32;5.35;;;3.10;;
46701;SDS011;33449;50.712;7.124;2023-02-28T14:47:33;6.43;;;2.97;;
46701;SDS011;33449;50.712;7.124;2023-02-28T14:50:19;6.85;;;3.20;;
46701;SDS011;33449;50.712;7.124;2023-02-28T14:52:53;4.95;;;2.78;;
46701;SDS011;33449;50.712;7.124;2023-02-28T14:55:32;4.28;;;2.80;;
46701;SDS011;33449;50.712;7.124;2023-02-28T14:58:02;4.73;;;3.00;;
46701;SDS011;33449;50.712;7.124;2023-02-28T15:00:35;3.92;;;2.70;;
46701;SDS011;33449;50.712;7.124;2023-02-28T15:03:17;5.40;;;3.30;;
46701;SDS011;33449;50.712;7.124;2023-02-28T15:05:51;6.50;;;3.28;;
46701;SDS011;33449;50.712;7.124;2023-02-28T15:08:18;4.55;;;2.75;;
46701;SDS011;33449;50.712;7.124;2023-02-28T15:10:57;5.05;;;3.30;;
46701;SDS011;33449;50.712;7.124;2023-02-28T15:18:49;4.78;;;2.90;;
46701;SDS011;33449;50.712;7.124;2023-02-28T15:21:25;6.70;;;3.38;;
46701;SDS011;33449;50.712;7.124;2023-02-28T15:26:34;5.65;;;3.05;;
46701;SDS011;33449;50.712;7.124;2023-02-28T15:29:10;7.13;;;3.53;;
46701;SDS011;33449;50.712;7.124;2023-02-28T15:31:43;6.70;;;3.13;;
46701;SDS011;33449;50.712;7.124;2023-02-28T15:34:36;6.03;;;3.85;;
46701;SDS011;33449;50.712;7.124;2023-02-28T15:37:26;6.43;;;3.25;;
46701;SDS011;33449;50.712;7.124;2023-02-28T15:39:54;5.40;;;3.55;;
46701;SDS011;33449;50.712;7.124;2023-02-28T15:42:27;5.43;;;3.40;;
46701;SDS011;33449;50.712;7.124;2023-02-28T15:44:57;7.20;;;3.92;;
46701;SDS011;33449;50.712;7.124;2023-02-28T15:47:27;8.25;;;3.90;;
46701;SDS011;33449;50.712;7.124;2023-02-28T15:50:03;6.17;;;3.87;;
46701;SDS011;33449;50.712;7.124;2023-02-28T15:52:37;5.07;;;3.22;;
46701;SDS011;33449;50.712;7.124;2023-02-28T15:55:18;5.22;;;3.33;;
46701;SDS011;33449;50.712;7.124;2023-02-28T15:57:48;5.20;;;3.30;;
46701;SDS011;33449;50.712;7.124;2023-02-28T16:00:18;6.55;;;3.80;;
46701;SDS011;33449;50.712;7.124;2023-02-28T16:02:50;9.65;;;3.95;;
46701;SDS011;33449;50.712;7.124;2023-02-28T16:05:28;6.97;;;3.35;;
46701;SDS011;33449;50.712;7.124;2023-02-28T16:08:00;5.20;;;3.40;;
46701;SDS011;33449;50.712;7.124;2023-02-28T16:10:31;6.72;;;3.70;;
46701;SDS011;33449;50.712;7.124;2023-02-28T16:13:03;5.28;;;3.13;;
46701;SDS011;33449;50.712;7.124;2023-02-28T16:15:33;6.03;;;3.50;;
46701;SDS011;33449;50.712;7.124;2023-02-28T16:18:08;6.82;;;3.38;;
46701;SDS011;33449;50.712;7.124;2023-02-28T16:20:39;4.70;;;3.47;;
46701;SDS011;33449;50.712;7.124;2023-02-28T16:23:09;7.28;;;3.85;;
46701;SDS011;33449;50.712;7.124;2023-02-28T16:25:40;6.40;;;3.22;;
46701;SDS011;33449;50.712;7.124;2023-02-28T16:33:47;6.07;;;3.30;;
46701;SDS011;33449;50.712;7.124;2023-02-28T16:36:20;5.47;;;3.40;;
46701;SDS011;33449;50.712;7.124;2023-02-28T16:38:48;5.43;;;3.28;;
46701;SDS011;33449;50.712;7.124;2023-02-28T16:41:20;6.13;;;3.15;;
46701;SDS011;33449;50.712;7.124;2023-02-28T16:43:50;6.07;;;3.40;;
46701;SDS011;33449;50.712;7.124;2023-02-28T16:46:18;5.53;;;4.40;;
46701;SDS011;33449;50.712;7.124;2023-02-28T16:48:46;5.97;;;3.45;;
46701;SDS011;33449;50.712;7.124;2023-02-28T16:51:20;8.10;;;4.30;;
46701;SDS011;33449;50.712;7.124;2023-02-28T16:53:50;5.35;;;3.50;;
46701;SDS011;33449;50.712;7.124;2023-02-28T16:56:22;9.27;;;4.15;;
46701;SDS011;33449;50.712;7.124;2023-02-28T16:58:50;8.57;;;3.90;;
46701;SDS011;33449;50.712;7.124;2023-02-28T17:04:24;7.65;;;3.80;;
46701;SDS011;33449;50.712;7.124;2023-02-28T17:09:38;7.57;;;3.47;;
46701;SDS011;33449;50.712;7.124;2023-02-28T17:12:10;8.25;;;3.85;;
46701;SDS011;33449;50.712;7.124;2023-02-28T17:14:38;10.40;;;4.68;;
46701;SDS011;33449;50.712;7.124;2023-02-28T17:17:06;9.43;;;4.60;;
46701;SDS011;33449;50.712;7.124;2023-02-28T17:19:34;7.00;;;3.95;;
46701;SDS011;33449;50.712;7.124;2023-02-28T17:22:02;5.95;;;3.95;;
46701;SDS011;33449;50.712;7.124;2023-02-28T17:24:29;11.02;;;3.88;;
46701;SDS011;33449;50.712;7.124;2023-02-28T17:26:57;9.05;;;4.15;;
46701;SDS011;33449;50.712;7.124;2023-02-28T17:29:25;7.80;;;4.47;;
46701;SDS011;33449;50.712;7.124;2023-02-28T17:31:54;7.55;;;4.30;;
46701;SDS011;33449;50.712;7.124;2023-02-28T17:34:34;10.45;;;4.28;;
46701;SDS011;33449;50.712;7.124;2023-02-28T17:39:33;9.60;;;4.78;;
46701;SDS011;33449;50.712;7.124;2023-02-28T17:42:02;10.38;;;5.00;;
46701;SDS011;33449;50.712;7.124;2023-02-28T17:44:29;11.02;;;4.93;;
46701;SDS011;33449;50.712;7.124;2023-02-28T17:46:58;9.75;;;4.50;;
46701;SDS011;33449;50.712;7.124;2023-02-28T17:49:26;8.27;;;4.13;;
46701;SDS011;33449;50.712;7.124;2023-02-28T17:51:53;6.53;;;3.85;;
46701;SDS011;33449;50.712;7.124;2023-02-28T17:54:24;8.93;;;4.80;;
46701;SDS011;33449;50.712;7.124;2023-02-28T17:56:51;10.75;;;4.90;;
46701;SDS011;33449;50.712;7.124;2023-02-28T17:59:21;10.43;;;4.72;;
46701;SDS011;33449;50.712;7.124;2023-02-28T18:01:51;8.57;;;5.65;;
46701;SDS011;33449;50.712;7.124;2023-02-28T18:04:19;11.27;;;5.75;;
46701;SDS011;33449;50.712;7.124;2023-02-28T18:06:47;10.93;;;6.22;;
46701;SDS011;33449;50.712;7.124;2023-02-28T18:09:17;10.60;;;6.00;;
46701;SDS011;33449;50.712;7.124;2023-02-28T18:11:45;11.13;;;5.85;;
46701;SDS011;33449;50.712;7.124;2023-02-28T18:14:14;9.38;;;5.80;;
46701;SDS011;33449;50.712;7.124;2023-02-28T18:16:42;10.50;;;5.85;;
46701;SDS011;33449;50.712;7.124;2023-02-28T18:19:13;12.77;;;5.57;;
46701;SDS011;33449;50.712;7.124;2023-02-28T18:21:43;14.93;;;5.75;;
46701;SDS011;33449;50.712;7.124;2023-02-28T18:24:12;7.25;;;4.65;;
46701;SDS011;33449;50.712;7.124;2023-02-28T18:26:40;12.13;;;6.20;;
46701;SDS011;33449;50.712;7.124;2023-02-28T18:29:08;10.35;;;5.95;;
46701;SDS011;33449;50.712;7.124;2023-02-28T18:31:42;15.73;;;6.53;;
46701;SDS011;33449;50.712;7.124;2023-02-28T18:34:09;14.02;;;8.05;;
46701;SDS011;33449;50.712;7.124;2023-02-28T18:36:36;17.60;;;7.40;;
46701;SDS011;33449;50.712;7.124;2023-02-28T18:39:04;24.05;;;8.65;;
46701;SDS011;33449;50.712;7.124;2023-02-28T18:41:33;22.38;;;7.95;;
46701;SDS011;33449;50.712;7.124;2023-02-28T18:44:01;15.98;;;7.63;;
46701;SDS011;33449;50.712;7.124;2023-02-28T18:46:43;18.60;;;8.27;;
46701;SDS011;33449;50.712;7.124;2023-02-28T18:49:12;15.32;;;7.68;;
46701;SDS011;33449;50.712;7.124;2023-02-28T18:51:40;15.43;;;8.10;;
46701;SDS011;33449;50.712;7.124;2023-02-28T18:56:38;15.38;;;8.65;;
46701;SDS011;33449;50.712;7.124;2023-02-28T18:59:05;18.23;;;9.38;;
46701;SDS011;33449;50.712;7.124;2023-02-28T19:01:32;21.92;;;9.30;;
46701;SDS011;33449;50.712;7.124;2023-02-28T19:04:22;17.38;;;7.93;;
46701;SDS011;33449;50.712;7.124;2023-02-28T19:06:49;20.95;;;8.52;;
46701;SDS011;33449;50.712;7.124;2023-02-28T19:09:17;23.80;;;9.80;;
46701;SDS011;33449;50.712;7.124;2023-02-28T19:11:44;23.42;;;11.02;;
46701;SDS011;33449;50.712;7.124;2023-02-28T19:14:11;23.38;;;12.40;;
46701;SDS011;33449;50.712;7.124;2023-02-28T19:16:39;16.98;;;9.60;;
46701;SDS011;33449;50.712;7.124;2023-02-28T19:19:06;16.33;;;8.75;;
46701;SDS011;33449;50.712;7.124;2023-02-28T19:21:33;17.70;;;8.88;;
46701;SDS011;33449;50.712;7.124;2023-02-28T19:24:03;19.63;;;7.35;;
46701;SDS011;33449;50.712;7.124;2023-02-28T19:26:30;17.90;;;7.88;;
46701;SDS011;33449;50.712;7.124;2023-02-28T19:29:00;13.63;;;7.22;;
46701;SDS011;33449;50.712;7.124;2023-02-28T19:31:30;12.32;;;7.35;;
46701;SDS011;33449;50.712;7.124;2023-02-28T19:33:58;14.20;;;7.28;;
46701;SDS011;33449;50.712;7.124;2023-02-28T19:36:25;17.17;;;7.47;;
46701;SDS011;33449;50.712;7.124;2023-02-28T19:38:54;15.35;;;8.00;;
46701;SDS011;33449;50.712;7.124;2023-02-28T19:41:30;18.13;;;9.60;;
46701;SDS011;33449;50.712;7.124;2023-02-28T19:43:58;22.08;;;10.38;;
46701;SDS011;33449;50.712;7.124;2023-02-28T19:46:27;18.40;;;8.98;;
46701;SDS011;33449;50.712;7.124;2023-02-28T19:48:55;21.88;;;11.38;;
46701;SDS011;33449;50.712;7.124;2023-02-28T19:51:24;30.50;;;14.65;;
46701;SDS011;33449;50.712;7.124;2023-02-28T19:53:52;22.10;;;12.23;;
46701;SDS011;33449;50.712;7.124;2023-02-28T19:56:20;23.60;;;10.68;;
46701;SDS011;33449;50.712;7.124;2023-02-28T19:58:47;23.38;;;11.52;;
46701;SDS011;33449;50.712;7.124;2023-02-28T20:01:16;21.00;;;11.02;;
46701;SDS011;33449;50.712;7.124;2023-02-28T20:03:47;21.58;;;9.98;;
46701;SDS011;33449;50.712;7.124;2023-02-28T20:06:18;23.50;;;12.50;;
46701;SDS011;33449;50.712;7.124;2023-02-28T20:08:47;20.65;;;11.32;;
46701;SDS011;33449;50.712;7.124;2023-02-28T20:11:16;25.65;;;11.77;;
46701;SDS011;33449;50.712;7.124;2023-02-28T20:13:44;17.33;;;9.45;;
46701;SDS011;33449;50.712;7.124;2023-02-28T20:16:12;16.88;;;9.55;;
46701;SDS011;33449;50.712;7.124;2023-02-28T20:18:39;18.05;;;9.85;;
46701;SDS011;33449;50.712;7.124;2023-02-28T20:21:10;17.60;;;9.47;;
46701;SDS011;33449;50.712;7.124;2023-02-28T20:23:38;18.55;;;8.68;;
46701;SDS011;33449;50.712;7.124;2023-02-28T20:26:05;16.92;;;8.80;;
46701;SDS011;33449;50.712;7.124;2023-02-28T20:28:33;15.98;;;7.90;;
46701;SDS011;33449;50.712;7.124;2023-02-28T20:33:31;15.48;;;7.78;;
46701;SDS011;33449;50.712;7.124;2023-02-28T20:35:58;19.20;;;9.45;;
46701;SDS011;33449;50.712;7.124;2023-02-28T20:41:00;20.13;;;8.90;;
46701;SDS011;33449;50.712;7.124;2023-02-28T20:43:28;14.45;;;9.25;;
46701;SDS011;33449;50.712;7.124;2023-02-28T20:45:56;15.13;;;8.48;;
46701;SDS011;33449;50.712;7.124;2023-02-28T20:50:54;15.73;;;8.13;;
46701;SDS011;33449;50.712;7.124;2023-02-28T20:53:22;18.80;;;9.80;;
46701;SDS011;33449;50.712;7.124;2023-02-28T20:58:21;17.42;;;9.48;;
46701;SDS011;33449;50.712;7.124;2023-02-28T21:00:58;20.52;;;9.68;;
46701;SDS011;33449;50.712;7.124;2023-02-28T21:03:26;22.45;;;9.95;;
46701;SDS011;33449;50.712;7.124;2023-02-28T21:05:59;21.25;;;11.60;;
46701;SDS011;33449;50.712;7.124;2023-02-28T21:08:26;24.65;;;11.32;;
46701;SDS011;33449;50.712;7.124;2023-02-28T21:10:53;21.27;;;10.68;;
46701;SDS011;33449;50.712;7.124;2023-02-28T21:13:20;22.27;;;11.63;;
46701;SDS011;33449;50.712;7.124;2023-02-28T21:15:48;20.52;;;10.45;;
46701;SDS011;33449;50.712;7.124;2023-02-28T21:18:15;26.55;;;12.15;;
46701;SDS011;33449;50.712;7.124;2023-02-28T21:20:43;24.10;;;11.15;;
46701;SDS011;33449;50.712;7.124;2023-02-28T21:23:10;15.93;;;8.95;;
46701;SDS011;33449;50.712;7.124;2023-02-28T21:25:37;21.25;;;8.88;;
46701;SDS011;33449;50.712;7.124;2023-02-28T21:28:05;22.13;;;11.15;;
46701;SDS011;33449;50.712;7.124;2023-02-28T21:30:33;20.00;;;11.02;;
46701;SDS011;33449;50.712;7.124;2023-02-28T21:33:00;19.70;;;10.02;;
46701;SDS011;33449;50.712;7.124;2023-02-28T21:35:28;26.77;;;12.75;;
46701;SDS011;33449;50.712;7.124;2023-02-28T21:37:55;24.23;;;10.93;;
46701;SDS011;33449;50.712;7.124;2023-02-28T21:40:23;25.92;;;11.05;;
46701;SDS011;33449;50.712;7.124;2023-02-28T21:42:52;21.55;;;10.88;;
46701;SDS011;33449;50.712;7.124;2023-02-28T21:45:21;19.08;;;11.27;;